sensor_id;sensor_type;location;lat;lon;timestamp;temperature;humidity
60495;DHT22;46342;49.046;11.920;2023-06-22T00:01:18;22.00;58.40
60495;DHT22;46342;49.046;11.920;2023-06-22T00:03:43;21.90;58.40
60495;DHT22;46342;49.046;11.920;2023-06-22T00:06:09;21.90;58.40
60495;DHT22;46342;49.046;11.920;2023-06-22T00:08:35;21.90;58.50
60495;DHT22;46342;49.046;11.920;2023-06-22T00:11:00;21.90;58.50
60495;DHT22;46342;49.046;11.920;2023-06-22T00:13:26;21.90;58.60
60495;DHT22;46342;49.046;11.920;2023-06-22T00:15:51;21.90;58.60
60495;DHT22;46342;49.046;11.920;2023-06-22T00:18:17;21.80;58.60
60495;DHT22;46342;49.046;11.920;2023-06-22T00:20:42;21.80;58.60
60495;DHT22;46342;49.046;11.920;2023-06-22T00:23:08;21.80;58.60
60495;DHT22;46342;49.046;11.920;2023-06-22T00:25:40;21.70;58.60
60495;DHT22;46342;49.046;11.920;2023-06-22T00:28:06;21.70;59.30
60495;DHT22;46342;49.046;11.920;2023-06-22T00:30:33;21.70;59.30
60495;DHT22;46342;49.046;11.920;2023-06-22T00:32:59;21.70;58.70
60495;DHT22;46342;49.046;11.920;2023-06-22T00:35:25;21.70;58.90
60495;DHT22;46342;49.046;11.920;2023-06-22T00:37:59;21.70;58.90
60495;DHT22;46342;49.046;11.920;2023-06-22T00:40:31;21.60;59.50
60495;DHT22;46342;49.046;11.920;2023-06-22T00:42:57;21.60;59.10
60495;DHT22;46342;49.046;11.920;2023-06-22T00:45:23;21.60;59.10
60495;DHT22;46342;49.046;11.920;2023-06-22T00:47:53;21.60;59.30
60495;DHT22;46342;49.046;11.920;2023-06-22T00:50:23;21.50;59.70
60495;DHT22;46342;49.046;11.920;2023-06-22T00:52:54;21.50;59.90
60495;DHT22;46342;49.046;11.920;2023-06-22T00:55:22;21.50;59.90
60495;DHT22;46342;49.046;11.920;2023-06-22T00:57:48;21.50;59.40
60495;DHT22;46342;49.046;11.920;2023-06-22T01:00:18;21.40;59.40
60495;DHT22;46342;49.046;11.920;2023-06-22T01:02:45;21.40;60.00
60495;DHT22;46342;49.046;11.920;2023-06-22T01:05:14;21.40;59.50
60495;DHT22;46342;49.046;11.920;2023-06-22T01:10:43;21.40;60.30
60495;DHT22;46342;49.046;11.920;2023-06-22T01:16:02;21.40;61.50
60495;DHT22;46342;49.046;11.920;2023-06-22T01:18:30;21.40;60.10
60495;DHT22;46342;49.046;11.920;2023-06-22T01:20:57;21.40;60.10
60495;DHT22;46342;49.046;11.920;2023-06-22T01:23:33;21.30;59.90
60495;DHT22;46342;49.046;11.920;2023-06-22T01:26:14;21.30;60.20
60495;DHT22;46342;49.046;11.920;2023-06-22T01:28:48;21.30;60.40
60495;DHT22;46342;49.046;11.920;2023-06-22T01:31:26;21.30;60.50
60495;DHT22;46342;49.046;11.920;2023-06-22T01:33:57;21.30;60.50
60495;DHT22;46342;49.046;11.920;2023-06-22T01:36:24;21.30;60.50
60495;DHT22;46342;49.046;11.920;2023-06-22T01:38:52;21.20;59.80
60495;DHT22;46342;49.046;11.920;2023-06-22T01:41:19;21.20;60.00
60495;DHT22;46342;49.046;11.920;2023-06-22T01:43:46;21.20;59.90
60495;DHT22;46342;49.046;11.920;2023-06-22T01:46:12;21.20;59.90
60495;DHT22;46342;49.046;11.920;2023-06-22T01:48:39;21.20;59.90
60495;DHT22;46342;49.046;11.920;2023-06-22T01:51:05;21.20;60.20
60495;DHT22;46342;49.046;11.920;2023-06-22T01:53:30;21.20;60.00
60495;DHT22;46342;49.046;11.920;2023-06-22T01:55:56;21.10;59.90
60495;DHT22;46342;49.046;11.920;2023-06-22T01:58:26;21.10;59.90
60495;DHT22;46342;49.046;11.920;2023-06-22T02:01:10;21.10;60.40
60495;DHT22;46342;49.046;11.920;2023-06-22T02:03:50;21.10;61.20
60495;DHT22;46342;49.046;11.920;2023-06-22T02:06:23;21.10;60.80
60495;DHT22;46342;49.046;11.920;2023-06-22T02:08:56;21.10;60.50
60495;DHT22;46342;49.046;11.920;2023-06-22T02:11:23;21.00;60.50
60495;DHT22;46342;49.046;11.920;2023-06-22T02:13:50;21.00;60.00
60495;DHT22;46342;49.046;11.920;2023-06-22T02:16:16;21.00;60.00
60495;DHT22;46342;49.046;11.920;2023-06-22T02:18:50;21.00;60.10
60495;DHT22;46342;49.046;11.920;2023-06-22T02:21:19;21.00;61.10
60495;DHT22;46342;49.046;11.920;2023-06-22T02:23:45;20.90;60.00
60495;DHT22;46342;49.046;11.920;2023-06-22T02:26:11;20.90;60.00
60495;DHT22;46342;49.046;11.920;2023-06-22T02:28:37;20.90;60.10
60495;DHT22;46342;49.046;11.920;2023-06-22T02:31:02;20.90;60.10
60495;DHT22;46342;49.046;11.920;2023-06-22T02:33:28;20.80;60.00
60495;DHT22;46342;49.046;11.920;2023-06-22T02:35:53;20.90;60.10
60495;DHT22;46342;49.046;11.920;2023-06-22T02:38:19;20.90;60.20
60495;DHT22;46342;49.046;11.920;2023-06-22T02:40:45;20.90;61.30
60495;DHT22;46342;49.046;11.920;2023-06-22T02:43:11;20.80;60.40
60495;DHT22;46342;49.046;11.920;2023-06-22T02:45:36;20.90;60.50
60495;DHT22;46342;49.046;11.920;2023-06-22T02:48:02;20.80;60.40
60495;DHT22;46342;49.046;11.920;2023-06-22T02:50:28;20.80;60.50
60495;DHT22;46342;49.046;11.920;2023-06-22T02:52:53;20.80;60.60
60495;DHT22;46342;49.046;11.920;2023-06-22T02:55:19;20.70;60.50
60495;DHT22;46342;49.046;11.920;2023-06-22T02:57:44;20.80;60.60
60495;DHT22;46342;49.046;11.920;2023-06-22T03:00:12;20.70;60.60
60495;DHT22;46342;49.046;11.920;2023-06-22T03:02:49;20.70;60.90
60495;DHT22;46342;49.046;11.920;2023-06-22T03:05:15;20.70;61.60
60495;DHT22;46342;49.046;11.920;2023-06-22T03:07:44;20.70;61.10
60495;DHT22;46342;49.046;11.920;2023-06-22T03:10:11;20.70;61.20
60495;DHT22;46342;49.046;11.920;2023-06-22T03:12:38;20.70;61.20
60495;DHT22;46342;49.046;11.920;2023-06-22T03:15:08;20.70;61.20
60495;DHT22;46342;49.046;11.920;2023-06-22T03:17:35;20.70;62.00
60495;DHT22;46342;49.046;11.920;2023-06-22T03:20:04;20.70;61.40
60495;DHT22;46342;49.046;11.920;2023-06-22T03:22:40;20.70;61.90
60495;DHT22;46342;49.046;11.920;2023-06-22T03:25:07;20.70;61.40
60495;DHT22;46342;49.046;11.920;2023-06-22T03:27:36;20.70;61.50
60495;DHT22;46342;49.046;11.920;2023-06-22T03:30:02;20.70;61.50
60495;DHT22;46342;49.046;11.920;2023-06-22T03:32:27;20.70;61.50
60495;DHT22;46342;49.046;11.920;2023-06-22T03:34:53;20.60;61.40
60495;DHT22;46342;49.046;11.920;2023-06-22T03:37:19;20.70;61.60
60495;DHT22;46342;49.046;11.920;2023-06-22T03:39:44;20.70;61.80
60495;DHT22;46342;49.046;11.920;2023-06-22T03:42:10;20.60;61.80
60495;DHT22;46342;49.046;11.920;2023-06-22T03:44:36;20.70;62.00
60495;DHT22;46342;49.046;11.920;2023-06-22T03:47:03;20.60;61.90
60495;DHT22;46342;49.046;11.920;2023-06-22T03:49:29;20.70;62.10
60495;DHT22;46342;49.046;11.920;2023-06-22T03:51:54;20.60;61.90
60495;DHT22;46342;49.046;11.920;2023-06-22T03:54:20;20.60;62.10
60495;DHT22;46342;49.046;11.920;2023-06-22T03:56:45;20.60;62.10
60495;DHT22;46342;49.046;11.920;2023-06-22T03:59:11;20.70;62.20
60495;DHT22;46342;49.046;11.920;2023-06-22T04:01:36;20.70;62.20
60495;DHT22;46342;49.046;11.920;2023-06-22T04:04:02;20.60;62.10
60495;DHT22;46342;49.046;11.920;2023-06-22T04:06:28;20.70;62.20
60495;DHT22;46342;49.046;11.920;2023-06-22T04:08:53;20.70;62.20
60495;DHT22;46342;49.046;11.920;2023-06-22T04:11:19;20.70;62.30
60495;DHT22;46342;49.046;11.920;2023-06-22T04:13:44;20.60;62.30
60495;DHT22;46342;49.046;11.920;2023-06-22T04:16:10;20.60;62.30
60495;DHT22;46342;49.046;11.920;2023-06-22T04:18:36;20.60;62.40
60495;DHT22;46342;49.046;11.920;2023-06-22T04:21:02;20.60;62.60
60495;DHT22;46342;49.046;11.920;2023-06-22T04:23:28;20.60;62.60
60495;DHT22;46342;49.046;11.920;2023-06-22T04:25:54;20.60;62.50
60495;DHT22;46342;49.046;11.920;2023-06-22T04:28:21;20.60;62.60
60495;DHT22;46342;49.046;11.920;2023-06-22T04:30:47;20.60;62.60
60495;DHT22;46342;49.046;11.920;2023-06-22T04:33:17;20.60;62.60
60495;DHT22;46342;49.046;11.920;2023-06-22T04:35:45;20.60;63.30
60495;DHT22;46342;49.046;11.920;2023-06-22T04:38:11;20.60;63.20
60495;DHT22;46342;49.046;11.920;2023-06-22T04:40:39;20.70;63.60
60495;DHT22;46342;49.046;11.920;2023-06-22T04:43:04;20.60;62.50
60495;DHT22;46342;49.046;11.920;2023-06-22T04:45:32;20.60;62.90
60495;DHT22;46342;49.046;11.920;2023-06-22T04:47:57;20.60;63.20
60495;DHT22;46342;49.046;11.920;2023-06-22T04:50:23;20.70;63.70
60495;DHT22;46342;49.046;11.920;2023-06-22T04:52:50;20.70;63.90
60495;DHT22;46342;49.046;11.920;2023-06-22T04:55:16;20.70;64.20
60495;DHT22;46342;49.046;11.920;2023-06-22T04:57:48;20.70;64.30
60495;DHT22;46342;49.046;11.920;2023-06-22T05:00:23;20.70;65.20
60495;DHT22;46342;49.046;11.920;2023-06-22T05:02:49;20.80;66.30
60495;DHT22;46342;49.046;11.920;2023-06-22T05:05:15;20.80;64.90
60495;DHT22;46342;49.046;11.920;2023-06-22T05:07:50;20.80;65.00
60495;DHT22;46342;49.046;11.920;2023-06-22T05:10:19;20.90;66.70
60495;DHT22;46342;49.046;11.920;2023-06-22T05:12:45;20.90;65.30
60495;DHT22;46342;49.046;11.920;2023-06-22T05:15:11;20.90;65.20
60495;DHT22;46342;49.046;11.920;2023-06-22T05:17:36;20.90;65.20
60495;DHT22;46342;49.046;11.920;2023-06-22T05:20:07;21.00;65.40
60495;DHT22;46342;49.046;11.920;2023-06-22T05:22:32;21.00;65.50
60495;DHT22;46342;49.046;11.920;2023-06-22T05:24:58;21.10;65.60
60495;DHT22;46342;49.046;11.920;2023-06-22T05:27:23;21.10;65.70
60495;DHT22;46342;49.046;11.920;2023-06-22T05:29:49;21.10;65.80
60495;DHT22;46342;49.046;11.920;2023-06-22T05:32:14;21.20;66.00
60495;DHT22;46342;49.046;11.920;2023-06-22T05:34:40;21.20;66.00
60495;DHT22;46342;49.046;11.920;2023-06-22T05:37:06;21.30;66.10
60495;DHT22;46342;49.046;11.920;2023-06-22T05:39:31;21.30;66.10
60495;DHT22;46342;49.046;11.920;2023-06-22T05:41:57;21.30;66.10
60495;DHT22;46342;49.046;11.920;2023-06-22T05:44:22;21.40;66.40
60495;DHT22;46342;49.046;11.920;2023-06-22T05:46:48;21.40;66.60
60495;DHT22;46342;49.046;11.920;2023-06-22T05:49:14;21.50;66.80
60495;DHT22;46342;49.046;11.920;2023-06-22T05:51:40;21.50;66.80
60495;DHT22;46342;49.046;11.920;2023-06-22T05:54:06;21.60;67.00
60495;DHT22;46342;49.046;11.920;2023-06-22T05:56:33;21.60;66.90
60495;DHT22;46342;49.046;11.920;2023-06-22T05:58:58;21.70;67.90
60495;DHT22;46342;49.046;11.920;2023-06-22T06:01:24;21.70;67.00
60495;DHT22;46342;49.046;11.920;2023-06-22T06:03:51;21.70;67.00
60495;DHT22;46342;49.046;11.920;2023-06-22T06:06:18;21.80;67.10
60495;DHT22;46342;49.046;11.920;2023-06-22T06:08:46;21.90;67.20
60495;DHT22;46342;49.046;11.920;2023-06-22T06:11:12;21.90;67.20
60495;DHT22;46342;49.046;11.920;2023-06-22T06:13:37;21.90;67.20
60495;DHT22;46342;49.046;11.920;2023-06-22T06:16:03;22.00;67.30
60495;DHT22;46342;49.046;11.920;2023-06-22T06:18:29;22.00;67.30
60495;DHT22;46342;49.046;11.920;2023-06-22T06:20:54;22.10;67.30
60495;DHT22;46342;49.046;11.920;2023-06-22T06:23:20;22.10;67.50
60495;DHT22;46342;49.046;11.920;2023-06-22T06:25:45;22.20;67.60
60495;DHT22;46342;49.046;11.920;2023-06-22T06:28:11;22.20;67.50
60495;DHT22;46342;49.046;11.920;2023-06-22T06:30:36;22.30;67.50
60495;DHT22;46342;49.046;11.920;2023-06-22T06:33:02;22.30;67.60
60495;DHT22;46342;49.046;11.920;2023-06-22T06:35:30;22.40;67.70
60495;DHT22;46342;49.046;11.920;2023-06-22T06:37:55;22.40;67.80
60495;DHT22;46342;49.046;11.920;2023-06-22T06:40:21;22.50;67.90
60495;DHT22;46342;49.046;11.920;2023-06-22T06:42:48;22.60;68.10
60495;DHT22;46342;49.046;11.920;2023-06-22T06:45:19;22.60;68.20
60495;DHT22;46342;49.046;11.920;2023-06-22T06:47:45;22.70;68.60
60495;DHT22;46342;49.046;11.920;2023-06-22T06:50:12;22.80;68.30
60495;DHT22;46342;49.046;11.920;2023-06-22T06:52:38;22.80;68.40
60495;DHT22;46342;49.046;11.920;2023-06-22T06:55:04;22.90;68.40
60495;DHT22;46342;49.046;11.920;2023-06-22T06:57:33;22.90;68.20
60495;DHT22;46342;49.046;11.920;2023-06-22T06:59:59;23.00;68.30
60495;DHT22;46342;49.046;11.920;2023-06-22T07:02:25;23.10;68.40
60495;DHT22;46342;49.046;11.920;2023-06-22T07:04:53;23.10;68.40
60495;DHT22;46342;49.046;11.920;2023-06-22T07:07:20;23.20;68.30
60495;DHT22;46342;49.046;11.920;2023-06-22T07:09:46;23.30;68.30
60495;DHT22;46342;49.046;11.920;2023-06-22T07:12:12;23.40;69.20
60495;DHT22;46342;49.046;11.920;2023-06-22T07:14:37;23.50;68.10
60495;DHT22;46342;49.046;11.920;2023-06-22T07:17:03;23.60;68.10
60495;DHT22;46342;49.046;11.920;2023-06-22T07:19:29;23.60;68.00
60495;DHT22;46342;49.046;11.920;2023-06-22T07:21:55;23.70;68.00
60495;DHT22;46342;49.046;11.920;2023-06-22T07:24:21;23.70;67.90
60495;DHT22;46342;49.046;11.920;2023-06-22T07:26:48;23.80;68.00
60495;DHT22;46342;49.046;11.920;2023-06-22T07:29:16;23.90;67.80
60495;DHT22;46342;49.046;11.920;2023-06-22T07:31:41;24.00;67.80
60495;DHT22;46342;49.046;11.920;2023-06-22T07:34:07;24.10;67.60
60495;DHT22;46342;49.046;11.920;2023-06-22T07:36:33;24.20;67.60
60495;DHT22;46342;49.046;11.920;2023-06-22T07:39:01;24.20;67.50
60495;DHT22;46342;49.046;11.920;2023-06-22T07:41:27;24.30;67.50
60495;DHT22;46342;49.046;11.920;2023-06-22T07:43:53;24.50;67.30
60495;DHT22;46342;49.046;11.920;2023-06-22T07:46:18;24.50;67.20
60495;DHT22;46342;49.046;11.920;2023-06-22T07:48:44;24.60;67.10
60495;DHT22;46342;49.046;11.920;2023-06-22T07:51:09;24.70;66.80
60495;DHT22;46342;49.046;11.920;2023-06-22T07:53:40;24.80;66.70
60495;DHT22;46342;49.046;11.920;2023-06-22T07:56:06;24.90;66.50
60495;DHT22;46342;49.046;11.920;2023-06-22T07:58:34;25.00;66.60
60495;DHT22;46342;49.046;11.920;2023-06-22T08:01:00;25.00;66.20
60495;DHT22;46342;49.046;11.920;2023-06-22T08:03:25;25.20;66.10
60495;DHT22;46342;49.046;11.920;2023-06-22T08:05:51;25.20;65.90
60495;DHT22;46342;49.046;11.920;2023-06-22T08:08:16;25.30;65.70
60495;DHT22;46342;49.046;11.920;2023-06-22T08:10:42;25.40;65.50
60495;DHT22;46342;49.046;11.920;2023-06-22T08:13:10;25.50;65.40
60495;DHT22;46342;49.046;11.920;2023-06-22T08:15:35;25.70;65.20
60495;DHT22;46342;49.046;11.920;2023-06-22T08:18:01;25.70;64.90
60495;DHT22;46342;49.046;11.920;2023-06-22T08:20:26;25.80;64.60
60495;DHT22;46342;49.046;11.920;2023-06-22T08:22:53;25.90;64.30
60495;DHT22;46342;49.046;11.920;2023-06-22T08:25:19;26.00;64.10
60495;DHT22;46342;49.046;11.920;2023-06-22T08:27:45;26.10;64.00
60495;DHT22;46342;49.046;11.920;2023-06-22T08:30:12;26.10;63.60
60495;DHT22;46342;49.046;11.920;2023-06-22T08:32:38;26.30;63.50
60495;DHT22;46342;49.046;11.920;2023-06-22T08:35:03;26.40;63.30
60495;DHT22;46342;49.046;11.920;2023-06-22T08:37:32;26.50;63.10
60495;DHT22;46342;49.046;11.920;2023-06-22T08:40:01;26.60;62.70
60495;DHT22;46342;49.046;11.920;2023-06-22T08:42:28;26.70;62.70
60495;DHT22;46342;49.046;11.920;2023-06-22T08:44:54;26.80;62.50
60495;DHT22;46342;49.046;11.920;2023-06-22T08:47:20;26.90;62.00
60495;DHT22;46342;49.046;11.920;2023-06-22T08:49:46;27.00;61.70
60495;DHT22;46342;49.046;11.920;2023-06-22T08:52:12;27.00;61.40
60495;DHT22;46342;49.046;11.920;2023-06-22T08:54:38;27.10;61.00
60495;DHT22;46342;49.046;11.920;2023-06-22T08:57:04;27.20;60.50
60495;DHT22;46342;49.046;11.920;2023-06-22T08:59:29;27.30;61.20
60495;DHT22;46342;49.046;11.920;2023-06-22T09:01:55;27.40;60.10
60495;DHT22;46342;49.046;11.920;2023-06-22T09:04:21;27.50;59.90
60495;DHT22;46342;49.046;11.920;2023-06-22T09:06:48;27.70;59.80
60495;DHT22;46342;49.046;11.920;2023-06-22T09:09:13;27.70;59.40
60495;DHT22;46342;49.046;11.920;2023-06-22T09:11:40;27.80;59.20
60495;DHT22;46342;49.046;11.920;2023-06-22T09:14:06;27.90;58.90
60495;DHT22;46342;49.046;11.920;2023-06-22T09:16:31;28.00;58.90
60495;DHT22;46342;49.046;11.920;2023-06-22T09:18:57;28.10;58.50
60495;DHT22;46342;49.046;11.920;2023-06-22T09:21:23;28.20;58.30
60495;DHT22;46342;49.046;11.920;2023-06-22T09:23:49;28.30;58.30
60495;DHT22;46342;49.046;11.920;2023-06-22T09:26:19;28.40;58.00
60495;DHT22;46342;49.046;11.920;2023-06-22T09:28:45;28.60;57.90
60495;DHT22;46342;49.046;11.920;2023-06-22T09:31:11;28.60;57.70
60495;DHT22;46342;49.046;11.920;2023-06-22T09:33:39;28.70;57.40
60495;DHT22;46342;49.046;11.920;2023-06-22T09:36:05;28.80;57.20
60495;DHT22;46342;49.046;11.920;2023-06-22T09:38:34;28.90;57.10
60495;DHT22;46342;49.046;11.920;2023-06-22T09:41:00;29.00;56.60
60495;DHT22;46342;49.046;11.920;2023-06-22T09:43:26;29.00;56.80
60495;DHT22;46342;49.046;11.920;2023-06-22T09:45:52;29.10;56.50
60495;DHT22;46342;49.046;11.920;2023-06-22T09:48:17;29.20;56.50
60495;DHT22;46342;49.046;11.920;2023-06-22T09:50:43;29.40;56.20
60495;DHT22;46342;49.046;11.920;2023-06-22T09:53:09;29.50;56.10
60495;DHT22;46342;49.046;11.920;2023-06-22T09:55:34;29.60;56.10
60495;DHT22;46342;49.046;11.920;2023-06-22T09:58:00;29.70;56.00
60495;DHT22;46342;49.046;11.920;2023-06-22T10:00:25;29.80;55.80
60495;DHT22;46342;49.046;11.920;2023-06-22T10:02:52;29.90;55.60
60495;DHT22;46342;49.046;11.920;2023-06-22T10:05:18;30.00;55.50
60495;DHT22;46342;49.046;11.920;2023-06-22T10:07:44;30.10;55.20
60495;DHT22;46342;49.046;11.920;2023-06-22T10:10:10;30.30;55.80
60495;DHT22;46342;49.046;11.920;2023-06-22T10:12:36;30.40;54.80
60495;DHT22;46342;49.046;11.920;2023-06-22T10:15:02;30.50;54.60
60495;DHT22;46342;49.046;11.920;2023-06-22T10:17:28;30.60;54.20
60495;DHT22;46342;49.046;11.920;2023-06-22T10:19:53;30.70;54.00
60495;DHT22;46342;49.046;11.920;2023-06-22T10:22:19;30.80;53.80
60495;DHT22;46342;49.046;11.920;2023-06-22T10:24:44;30.90;53.70
60495;DHT22;46342;49.046;11.920;2023-06-22T10:27:11;30.90;53.30
60495;DHT22;46342;49.046;11.920;2023-06-22T10:29:37;31.10;53.30
60495;DHT22;46342;49.046;11.920;2023-06-22T10:32:03;31.20;53.20
60495;DHT22;46342;49.046;11.920;2023-06-22T10:34:29;31.20;52.80
60495;DHT22;46342;49.046;11.920;2023-06-22T10:36:54;31.30;52.60
60495;DHT22;46342;49.046;11.920;2023-06-22T10:39:20;31.50;52.80
60495;DHT22;46342;49.046;11.920;2023-06-22T10:41:45;31.50;52.50
60495;DHT22;46342;49.046;11.920;2023-06-22T10:44:11;31.60;52.30
60495;DHT22;46342;49.046;11.920;2023-06-22T10:46:37;31.70;52.00
60495;DHT22;46342;49.046;11.920;2023-06-22T10:49:03;31.90;52.00
60495;DHT22;46342;49.046;11.920;2023-06-22T10:51:29;31.90;51.80
60495;DHT22;46342;49.046;11.920;2023-06-22T10:53:54;32.00;51.70
60495;DHT22;46342;49.046;11.920;2023-06-22T10:56:20;32.20;51.60
60495;DHT22;46342;49.046;11.920;2023-06-22T10:58:46;32.30;51.60
60495;DHT22;46342;49.046;11.920;2023-06-22T11:01:11;32.40;51.20
60495;DHT22;46342;49.046;11.920;2023-06-22T11:03:37;32.50;51.10
60495;DHT22;46342;49.046;11.920;2023-06-22T11:06:02;32.60;50.60
60495;DHT22;46342;49.046;11.920;2023-06-22T11:08:28;32.70;50.50
60495;DHT22;46342;49.046;11.920;2023-06-22T11:10:53;32.80;50.40
60495;DHT22;46342;49.046;11.920;2023-06-22T11:13:19;32.90;50.50
60495;DHT22;46342;49.046;11.920;2023-06-22T11:15:45;33.00;50.30
60495;DHT22;46342;49.046;11.920;2023-06-22T11:18:10;33.10;50.10
60495;DHT22;46342;49.046;11.920;2023-06-22T11:20:36;33.20;49.90
60495;DHT22;46342;49.046;11.920;2023-06-22T11:23:05;33.30;49.60
60495;DHT22;46342;49.046;11.920;2023-06-22T11:25:31;33.40;49.30
60495;DHT22;46342;49.046;11.920;2023-06-22T11:27:57;33.40;49.10
60495;DHT22;46342;49.046;11.920;2023-06-22T11:30:23;33.40;48.70
60495;DHT22;46342;49.046;11.920;2023-06-22T11:32:48;33.50;48.60
60495;DHT22;46342;49.046;11.920;2023-06-22T11:35:14;33.50;48.30
60495;DHT22;46342;49.046;11.920;2023-06-22T11:37:40;33.60;48.10
60495;DHT22;46342;49.046;11.920;2023-06-22T11:40:05;33.60;48.20
60495;DHT22;46342;49.046;11.920;2023-06-22T11:42:34;33.60;48.10
60495;DHT22;46342;49.046;11.920;2023-06-22T11:45:00;33.60;47.80
60495;DHT22;46342;49.046;11.920;2023-06-22T11:47:25;33.60;47.90
60495;DHT22;46342;49.046;11.920;2023-06-22T11:49:51;33.70;47.90
60495;DHT22;46342;49.046;11.920;2023-06-22T11:52:16;33.80;47.70
60495;DHT22;46342;49.046;11.920;2023-06-22T11:54:43;33.80;47.70
60495;DHT22;46342;49.046;11.920;2023-06-22T11:57:08;33.90;47.60
60495;DHT22;46342;49.046;11.920;2023-06-22T11:59:34;34.00;47.70
60495;DHT22;46342;49.046;11.920;2023-06-22T12:01:59;34.10;47.70
60495;DHT22;46342;49.046;11.920;2023-06-22T12:04:25;34.20;47.60
60495;DHT22;46342;49.046;11.920;2023-06-22T12:06:51;34.30;47.50
60495;DHT22;46342;49.046;11.920;2023-06-22T12:09:16;34.40;47.20
60495;DHT22;46342;49.046;11.920;2023-06-22T12:11:42;34.50;46.90
60495;DHT22;46342;49.046;11.920;2023-06-22T12:14:07;34.50;46.70
60495;DHT22;46342;49.046;11.920;2023-06-22T12:16:33;34.60;46.60
60495;DHT22;46342;49.046;11.920;2023-06-22T12:18:58;34.70;47.10
60495;DHT22;46342;49.046;11.920;2023-06-22T12:21:24;34.80;46.40
60495;DHT22;46342;49.046;11.920;2023-06-22T12:23:50;34.90;46.20
60495;DHT22;46342;49.046;11.920;2023-06-22T12:26:16;35.00;45.90
60495;DHT22;46342;49.046;11.920;2023-06-22T12:28:41;35.10;45.50
60495;DHT22;46342;49.046;11.920;2023-06-22T12:31:07;35.10;45.40
60495;DHT22;46342;49.046;11.920;2023-06-22T12:33:32;35.20;45.30
60495;DHT22;46342;49.046;11.920;2023-06-22T12:35:58;35.30;45.20
60495;DHT22;46342;49.046;11.920;2023-06-22T12:38:23;35.30;45.00
60495;DHT22;46342;49.046;11.920;2023-06-22T12:40:52;35.40;45.00
60495;DHT22;46342;49.046;11.920;2023-06-22T12:43:18;35.50;45.00
60495;DHT22;46342;49.046;11.920;2023-06-22T12:45:43;35.50;44.90
60495;DHT22;46342;49.046;11.920;2023-06-22T12:48:09;35.60;44.70
60495;DHT22;46342;49.046;11.920;2023-06-22T12:50:34;35.60;44.80
60495;DHT22;46342;49.046;11.920;2023-06-22T12:53:00;35.70;44.90
60495;DHT22;46342;49.046;11.920;2023-06-22T12:55:27;35.80;44.60
60495;DHT22;46342;49.046;11.920;2023-06-22T12:57:53;35.90;44.50
60495;DHT22;46342;49.046;11.920;2023-06-22T13:00:19;36.00;44.40
60495;DHT22;46342;49.046;11.920;2023-06-22T13:02:45;36.00;44.10
60495;DHT22;46342;49.046;11.920;2023-06-22T13:05:11;36.10;44.10
60495;DHT22;46342;49.046;11.920;2023-06-22T13:07:36;36.20;43.80
60495;DHT22;46342;49.046;11.920;2023-06-22T13:10:02;36.30;43.90
60495;DHT22;46342;49.046;11.920;2023-06-22T13:12:28;36.40;44.00
60495;DHT22;46342;49.046;11.920;2023-06-22T13:14:53;36.40;43.60
60495;DHT22;46342;49.046;11.920;2023-06-22T13:17:19;36.50;43.60
60495;DHT22;46342;49.046;11.920;2023-06-22T13:19:44;36.50;43.40
60495;DHT22;46342;49.046;11.920;2023-06-22T13:22:30;36.60;43.30
60495;DHT22;46342;49.046;11.920;2023-06-22T13:24:56;36.70;42.20
60495;DHT22;46342;49.046;11.920;2023-06-22T13:27:22;36.70;43.70
60495;DHT22;46342;49.046;11.920;2023-06-22T13:29:48;36.80;42.90
60495;DHT22;46342;49.046;11.920;2023-06-22T13:32:14;36.80;42.80
60495;DHT22;46342;49.046;11.920;2023-06-22T13:34:39;36.90;43.00
60495;DHT22;46342;49.046;11.920;2023-06-22T13:37:05;36.90;42.80
60495;DHT22;46342;49.046;11.920;2023-06-22T13:39:31;37.00;42.80
60495;DHT22;46342;49.046;11.920;2023-06-22T13:41:57;37.00;42.60
60495;DHT22;46342;49.046;11.920;2023-06-22T13:44:23;37.10;42.10
60495;DHT22;46342;49.046;11.920;2023-06-22T13:46:53;37.10;42.00
60495;DHT22;46342;49.046;11.920;2023-06-22T13:49:18;37.10;42.70
60495;DHT22;46342;49.046;11.920;2023-06-22T13:51:44;37.20;42.00
60495;DHT22;46342;49.046;11.920;2023-06-22T13:54:09;37.20;41.90
60495;DHT22;46342;49.046;11.920;2023-06-22T13:56:35;37.30;42.00
60495;DHT22;46342;49.046;11.920;2023-06-22T13:59:01;37.30;41.70
60495;DHT22;46342;49.046;11.920;2023-06-22T14:01:26;37.40;41.40
60495;DHT22;46342;49.046;11.920;2023-06-22T14:03:52;37.30;41.00
60495;DHT22;46342;49.046;11.920;2023-06-22T14:06:17;37.30;41.10
60495;DHT22;46342;49.046;11.920;2023-06-22T14:08:43;37.30;41.10
60495;DHT22;46342;49.046;11.920;2023-06-22T14:11:09;37.30;40.90
60495;DHT22;46342;49.046;11.920;2023-06-22T14:13:35;37.20;41.00
60495;DHT22;46342;49.046;11.920;2023-06-22T14:16:01;37.20;41.10
60495;DHT22;46342;49.046;11.920;2023-06-22T14:18:27;37.10;41.10
60495;DHT22;46342;49.046;11.920;2023-06-22T14:20:52;37.10;41.30
60495;DHT22;46342;49.046;11.920;2023-06-22T14:23:18;37.10;41.20
60495;DHT22;46342;49.046;11.920;2023-06-22T14:25:43;37.00;41.40
60495;DHT22;46342;49.046;11.920;2023-06-22T14:28:09;37.00;41.40
60495;DHT22;46342;49.046;11.920;2023-06-22T14:30:34;37.00;41.40
60495;DHT22;46342;49.046;11.920;2023-06-22T14:33:00;37.10;41.20
60495;DHT22;46342;49.046;11.920;2023-06-22T14:35:25;37.10;41.20
60495;DHT22;46342;49.046;11.920;2023-06-22T14:37:51;37.10;41.40
60495;DHT22;46342;49.046;11.920;2023-06-22T14:40:16;37.10;41.20
60495;DHT22;46342;49.046;11.920;2023-06-22T14:42:42;37.20;41.10
60495;DHT22;46342;49.046;11.920;2023-06-22T14:45:08;37.20;41.10
60495;DHT22;46342;49.046;11.920;2023-06-22T14:47:33;37.30;40.80
60495;DHT22;46342;49.046;11.920;2023-06-22T14:49:59;37.30;40.60
60495;DHT22;46342;49.046;11.920;2023-06-22T14:52:28;37.30;40.70
60495;DHT22;46342;49.046;11.920;2023-06-22T14:54:55;37.40;40.50
60495;DHT22;46342;49.046;11.920;2023-06-22T14:57:20;37.40;40.40
60495;DHT22;46342;49.046;11.920;2023-06-22T14:59:48;37.40;40.10
60495;DHT22;46342;49.046;11.920;2023-06-22T15:02:14;37.50;40.20
60495;DHT22;46342;49.046;11.920;2023-06-22T15:04:40;37.50;40.20
60495;DHT22;46342;49.046;11.920;2023-06-22T15:07:05;37.60;40.30
60495;DHT22;46342;49.046;11.920;2023-06-22T15:09:31;37.70;40.40
60495;DHT22;46342;49.046;11.920;2023-06-22T15:11:57;37.70;40.10
60495;DHT22;46342;49.046;11.920;2023-06-22T15:14:23;37.80;40.20
60495;DHT22;46342;49.046;11.920;2023-06-22T15:16:49;37.90;40.10